sensor_id;sensor_type;location;lat;lon;timestamp;temperature;humidity
35680;DHT22;21803;53.586;10.040;2023-10-19T00:01:10;20.90;48.70
35680;DHT22;21803;53.586;10.040;2023-10-19T00:03:37;20.90;48.70
35680;DHT22;21803;53.586;10.040;2023-10-19T00:06:03;20.90;48.70
35680;DHT22;21803;53.586;10.040;2023-10-19T00:08:30;20.90;48.60
35680;DHT22;21803;53.586;10.040;2023-10-19T00:11:06;20.90;48.70
35680;DHT22;21803;53.586;10.040;2023-10-19T00:13:36;20.90;48.70
35680;DHT22;21803;53.586;10.040;2023-10-19T00:16:02;20.90;48.60
35680;DHT22;21803;53.586;10.040;2023-10-19T00:18:32;20.90;48.70
35680;DHT22;21803;53.586;10.040;2023-10-19T00:21:00;20.90;48.70
35680;DHT22;21803;53.586;10.040;2023-10-19T00:23:36;20.90;48.70
35680;DHT22;21803;53.586;10.040;2023-10-19T00:26:03;20.90;48.70
35680;DHT22;21803;53.586;10.040;2023-10-19T00:28:40;20.90;48.60
35680;DHT22;21803;53.586;10.040;2023-10-19T00:31:06;20.90;48.60
35680;DHT22;21803;53.586;10.040;2023-10-19T00:33:36;20.90;48.70
35680;DHT22;21803;53.586;10.040;2023-10-19T00:36:05;20.90;48.60
35680;DHT22;21803;53.586;10.040;2023-10-19T00:38:37;20.90;48.60
35680;DHT22;21803;53.586;10.040;2023-10-19T00:41:03;20.90;48.60
35680;DHT22;21803;53.586;10.040;2023-10-19T00:43:34;20.90;48.60
35680;DHT22;21803;53.586;10.040;2023-10-19T00:46:03;20.90;48.60
35680;DHT22;21803;53.586;10.040;2023-10-19T00:48:39;20.90;48.60
35680;DHT22;21803;53.586;10.040;2023-10-19T00:51:05;20.90;48.60
35680;DHT22;21803;53.586;10.040;2023-10-19T00:53:53;20.90;48.60
35680;DHT22;21803;53.586;10.040;2023-10-19T00:56:20;20.90;48.50
35680;DHT22;21803;53.586;10.040;2023-10-19T00:58:52;20.90;48.50
35680;DHT22;21803;53.586;10.040;2023-10-19T01:01:28;20.90;48.60
35680;DHT22;21803;53.586;10.040;2023-10-19T01:03:54;20.90;48.60
35680;DHT22;21803;53.586;10.040;2023-10-19T01:06:25;20.90;48.60
35680;DHT22;21803;53.586;10.040;2023-10-19T01:08:52;20.90;48.60
35680;DHT22;21803;53.586;10.040;2023-10-19T01:11:19;20.90;48.60
35680;DHT22;21803;53.586;10.040;2023-10-19T01:13:47;20.90;48.60
35680;DHT22;21803;53.586;10.040;2023-10-19T01:16:16;20.90;48.60
35680;DHT22;21803;53.586;10.040;2023-10-19T01:18:52;20.90;48.60
35680;DHT22;21803;53.586;10.040;2023-10-19T01:21:24;20.80;48.50
35680;DHT22;21803;53.586;10.040;2023-10-19T01:24:01;20.90;48.60
35680;DHT22;21803;53.586;10.040;2023-10-19T01:26:26;20.90;48.60
35680;DHT22;21803;53.586;10.040;2023-10-19T01:28:52;20.90;48.50
35680;DHT22;21803;53.586;10.040;2023-10-19T01:31:32;20.90;48.50
35680;DHT22;21803;53.586;10.040;2023-10-19T01:34:03;20.90;48.50
35680;DHT22;21803;53.586;10.040;2023-10-19T01:36:34;20.90;48.50
35680;DHT22;21803;53.586;10.040;2023-10-19T01:39:07;20.90;48.50
35680;DHT22;21803;53.586;10.040;2023-10-19T01:41:37;20.90;49.10
35680;DHT22;21803;53.586;10.040;2023-10-19T01:44:02;20.90;48.60
35680;DHT22;21803;53.586;10.040;2023-10-19T01:46:38;20.90;48.50
35680;DHT22;21803;53.586;10.040;2023-10-19T01:49:05;20.80;48.50
35680;DHT22;21803;53.586;10.040;2023-10-19T01:51:34;20.80;48.50
35680;DHT22;21803;53.586;10.040;2023-10-19T01:54:09;20.90;48.50
35680;DHT22;21803;53.586;10.040;2023-10-19T01:56:35;20.80;48.50
35680;DHT22;21803;53.586;10.040;2023-10-19T01:59:02;20.80;48.50
35680;DHT22;21803;53.586;10.040;2023-10-19T02:01:29;20.90;48.50
35680;DHT22;21803;53.586;10.040;2023-10-19T02:04:00;20.90;48.50
35680;DHT22;21803;53.586;10.040;2023-10-19T02:06:27;20.90;48.50
35680;DHT22;21803;53.586;10.040;2023-10-19T02:09:02;20.80;48.50
35680;DHT22;21803;53.586;10.040;2023-10-19T02:11:46;20.80;48.50
35680;DHT22;21803;53.586;10.040;2023-10-19T02:14:13;20.90;48.50
35680;DHT22;21803;53.586;10.040;2023-10-19T02:16:46;20.80;48.50
35680;DHT22;21803;53.586;10.040;2023-10-19T02:19:13;20.80;48.80
35680;DHT22;21803;53.586;10.040;2023-10-19T02:21:39;20.90;48.50
35680;DHT22;21803;53.586;10.040;2023-10-19T02:24:09;20.80;48.40
35680;DHT22;21803;53.586;10.040;2023-10-19T02:26:36;20.80;48.40
35680;DHT22;21803;53.586;10.040;2023-10-19T02:29:03;20.90;48.50
35680;DHT22;21803;53.586;10.040;2023-10-19T02:31:34;20.80;48.40
35680;DHT22;21803;53.586;10.040;2023-10-19T02:33:59;20.80;48.50
35680;DHT22;21803;53.586;10.040;2023-10-19T02:36:29;20.80;49.00
35680;DHT22;21803;53.586;10.040;2023-10-19T02:39:00;20.80;48.40
35680;DHT22;21803;53.586;10.040;2023-10-19T02:41:30;21.40;48.70
35680;DHT22;21803;53.586;10.040;2023-10-19T02:43:56;20.80;48.40
35680;DHT22;21803;53.586;10.040;2023-10-19T02:46:35;20.80;48.40
35680;DHT22;21803;53.586;10.040;2023-10-19T02:49:05;20.80;48.40
35680;DHT22;21803;53.586;10.040;2023-10-19T02:51:36;20.80;48.40
35680;DHT22;21803;53.586;10.040;2023-10-19T02:54:02;20.80;48.40
35680;DHT22;21803;53.586;10.040;2023-10-19T02:56:28;20.80;48.40
35680;DHT22;21803;53.586;10.040;2023-10-19T02:58:55;20.80;48.40
35680;DHT22;21803;53.586;10.040;2023-10-19T03:01:27;20.80;49.00
35680;DHT22;21803;53.586;10.040;2023-10-19T03:03:55;20.80;48.40
35680;DHT22;21803;53.586;10.040;2023-10-19T03:06:26;20.80;48.40
35680;DHT22;21803;53.586;10.040;2023-10-19T03:08:56;20.80;48.40
35680;DHT22;21803;53.586;10.040;2023-10-19T03:11:30;20.80;48.40
35680;DHT22;21803;53.586;10.040;2023-10-19T03:13:58;20.80;48.40
35680;DHT22;21803;53.586;10.040;2023-10-19T03:16:24;20.80;48.40
35680;DHT22;21803;53.586;10.040;2023-10-19T03:18:50;20.80;48.40
35680;DHT22;21803;53.586;10.040;2023-10-19T03:21:18;20.90;48.40
35680;DHT22;21803;53.586;10.040;2023-10-19T03:23:44;20.80;48.40
35680;DHT22;21803;53.586;10.040;2023-10-19T03:26:10;20.80;48.30
35680;DHT22;21803;53.586;10.040;2023-10-19T03:28:54;20.80;48.40
35680;DHT22;21803;53.586;10.040;2023-10-19T03:31:22;20.80;48.30
35680;DHT22;21803;53.586;10.040;2023-10-19T03:33:49;20.80;48.30
35680;DHT22;21803;53.586;10.040;2023-10-19T03:36:16;20.80;48.30
35680;DHT22;21803;53.586;10.040;2023-10-19T03:38:42;20.80;48.30
35680;DHT22;21803;53.586;10.040;2023-10-19T03:41:09;20.80;48.30
35680;DHT22;21803;53.586;10.040;2023-10-19T03:43:36;20.80;48.30
35680;DHT22;21803;53.586;10.040;2023-10-19T03:46:08;20.80;48.40
35680;DHT22;21803;53.586;10.040;2023-10-19T03:48:48;20.80;48.40
35680;DHT22;21803;53.586;10.040;2023-10-19T03:51:13;20.80;48.30
35680;DHT22;21803;53.586;10.040;2023-10-19T03:53:40;20.80;48.30
35680;DHT22;21803;53.586;10.040;2023-10-19T03:56:11;20.80;48.30
35680;DHT22;21803;53.586;10.040;2023-10-19T03:58:37;20.80;48.30
35680;DHT22;21803;53.586;10.040;2023-10-19T04:01:05;20.80;48.30
35680;DHT22;21803;53.586;10.040;2023-10-19T04:03:31;20.80;48.30
35680;DHT22;21803;53.586;10.040;2023-10-19T04:05:56;20.80;48.30
35680;DHT22;21803;53.586;10.040;2023-10-19T04:08:26;20.90;48.40
35680;DHT22;21803;53.586;10.040;2023-10-19T04:10:52;20.80;48.30
35680;DHT22;21803;53.586;10.040;2023-10-19T04:13:37;20.80;48.30
35680;DHT22;21803;53.586;10.040;2023-10-19T04:16:03;20.80;48.30
35680;DHT22;21803;53.586;10.040;2023-10-19T04:18:29;20.80;48.30
35680;DHT22;21803;53.586;10.040;2023-10-19T04:20:54;20.80;48.30
35680;DHT22;21803;53.586;10.040;2023-10-19T04:23:24;20.80;48.30
35680;DHT22;21803;53.586;10.040;2023-10-19T04:25:54;20.80;48.30
35680;DHT22;21803;53.586;10.040;2023-10-19T04:28:22;20.80;48.30
35680;DHT22;21803;53.586;10.040;2023-10-19T04:30:56;20.80;48.30
35680;DHT22;21803;53.586;10.040;2023-10-19T04:33:21;20.80;48.30
35680;DHT22;21803;53.586;10.040;2023-10-19T04:35:50;20.80;48.30
35680;DHT22;21803;53.586;10.040;2023-10-19T04:38:22;20.80;48.30
35680;DHT22;21803;53.586;10.040;2023-10-19T04:40:47;20.80;48.30
35680;DHT22;21803;53.586;10.040;2023-10-19T04:43:13;20.80;48.30
35680;DHT22;21803;53.586;10.040;2023-10-19T04:45:41;20.80;48.30
35680;DHT22;21803;53.586;10.040;2023-10-19T04:48:07;20.80;48.30
35680;DHT22;21803;53.586;10.040;2023-10-19T04:50:33;20.80;48.30
35680;DHT22;21803;53.586;10.040;2023-10-19T04:52:58;20.80;48.30
35680;DHT22;21803;53.586;10.040;2023-10-19T04:55:24;20.80;48.30
35680;DHT22;21803;53.586;10.040;2023-10-19T04:57:49;20.80;48.30
35680;DHT22;21803;53.586;10.040;2023-10-19T05:00:15;20.80;48.30
35680;DHT22;21803;53.586;10.040;2023-10-19T05:02:41;20.80;48.30
35680;DHT22;21803;53.586;10.040;2023-10-19T05:05:07;20.80;48.30
35680;DHT22;21803;53.586;10.040;2023-10-19T05:07:33;20.80;48.30
35680;DHT22;21803;53.586;10.040;2023-10-19T05:09:59;20.80;48.30
35680;DHT22;21803;53.586;10.040;2023-10-19T05:12:25;20.80;48.30
35680;DHT22;21803;53.586;10.040;2023-10-19T05:14:50;20.80;48.30
35680;DHT22;21803;53.586;10.040;2023-10-19T05:17:16;20.80;48.30
35680;DHT22;21803;53.586;10.040;2023-10-19T05:19:41;20.80;48.30
35680;DHT22;21803;53.586;10.040;2023-10-19T05:22:09;20.80;48.30
35680;DHT22;21803;53.586;10.040;2023-10-19T05:24:35;20.80;48.30
35680;DHT22;21803;53.586;10.040;2023-10-19T05:27:01;20.80;48.30
35680;DHT22;21803;53.586;10.040;2023-10-19T05:29:26;20.80;48.30
35680;DHT22;21803;53.586;10.040;2023-10-19T05:31:53;20.80;48.30
35680;DHT22;21803;53.586;10.040;2023-10-19T05:34:22;20.80;48.90
35680;DHT22;21803;53.586;10.040;2023-10-19T05:36:49;20.80;48.30
35680;DHT22;21803;53.586;10.040;2023-10-19T05:39:15;20.80;48.30
35680;DHT22;21803;53.586;10.040;2023-10-19T05:41:41;20.80;48.30
35680;DHT22;21803;53.586;10.040;2023-10-19T05:44:07;20.80;48.30
35680;DHT22;21803;53.586;10.040;2023-10-19T05:46:33;20.70;48.40
35680;DHT22;21803;53.586;10.040;2023-10-19T05:48:58;20.80;48.30
35680;DHT22;21803;53.586;10.040;2023-10-19T05:51:24;20.80;48.30
35680;DHT22;21803;53.586;10.040;2023-10-19T05:53:50;20.80;48.30
35680;DHT22;21803;53.586;10.040;2023-10-19T05:56:23;20.80;48.30
35680;DHT22;21803;53.586;10.040;2023-10-19T05:58:49;20.80;48.30
35680;DHT22;21803;53.586;10.040;2023-10-19T06:01:16;20.80;48.30
35680;DHT22;21803;53.586;10.040;2023-10-19T06:03:43;20.80;48.30
35680;DHT22;21803;53.586;10.040;2023-10-19T06:06:08;20.80;48.30
35680;DHT22;21803;53.586;10.040;2023-10-19T06:08:34;20.80;48.30
35680;DHT22;21803;53.586;10.040;2023-10-19T06:10:59;20.80;48.30
35680;DHT22;21803;53.586;10.040;2023-10-19T06:13:26;20.80;48.30
35680;DHT22;21803;53.586;10.040;2023-10-19T06:15:51;20.80;48.30
35680;DHT22;21803;53.586;10.040;2023-10-19T06:18:17;20.80;48.30
35680;DHT22;21803;53.586;10.040;2023-10-19T06:20:46;20.80;48.30
35680;DHT22;21803;53.586;10.040;2023-10-19T06:23:13;20.80;48.30
35680;DHT22;21803;53.586;10.040;2023-10-19T06:25:39;20.80;48.30
35680;DHT22;21803;53.586;10.040;2023-10-19T06:28:05;20.80;48.30
35680;DHT22;21803;53.586;10.040;2023-10-19T06:30:31;20.80;48.30
35680;DHT22;21803;53.586;10.040;2023-10-19T06:32:59;20.80;48.30
35680;DHT22;21803;53.586;10.040;2023-10-19T06:35:26;20.80;48.30
35680;DHT22;21803;53.586;10.040;2023-10-19T06:37:53;20.80;48.30
35680;DHT22;21803;53.586;10.040;2023-10-19T06:40:20;20.80;48.30
35680;DHT22;21803;53.586;10.040;2023-10-19T06:42:47;20.80;48.30
35680;DHT22;21803;53.586;10.040;2023-10-19T06:45:14;20.80;48.30
35680;DHT22;21803;53.586;10.040;2023-10-19T06:47:45;20.80;48.30
35680;DHT22;21803;53.586;10.040;2023-10-19T06:50:16;20.80;48.30
35680;DHT22;21803;53.586;10.040;2023-10-19T06:52:43;20.80;48.30
35680;DHT22;21803;53.586;10.040;2023-10-19T06:55:10;20.80;48.30
35680;DHT22;21803;53.586;10.040;2023-10-19T06:57:44;20.80;48.30
35680;DHT22;21803;53.586;10.040;2023-10-19T07:00:12;20.80;48.30
35680;DHT22;21803;53.586;10.040;2023-10-19T07:02:42;20.80;48.30
35680;DHT22;21803;53.586;10.040;2023-10-19T07:05:09;20.80;48.30
35680;DHT22;21803;53.586;10.040;2023-10-19T07:07:41;20.80;48.30
35680;DHT22;21803;53.586;10.040;2023-10-19T07:10:08;20.80;48.30
35680;DHT22;21803;53.586;10.040;2023-10-19T07:12:39;20.80;48.30
35680;DHT22;21803;53.586;10.040;2023-10-19T07:15:08;20.80;48.30
35680;DHT22;21803;53.586;10.040;2023-10-19T07:17:35;20.80;48.30
35680;DHT22;21803;53.586;10.040;2023-10-19T07:20:03;20.80;48.30
35680;DHT22;21803;53.586;10.040;2023-10-19T07:22:32;20.80;48.30
35680;DHT22;21803;53.586;10.040;2023-10-19T07:24:57;20.80;48.30
35680;DHT22;21803;53.586;10.040;2023-10-19T07:27:23;20.80;48.30
35680;DHT22;21803;53.586;10.040;2023-10-19T07:29:50;20.80;48.30
35680;DHT22;21803;53.586;10.040;2023-10-19T07:32:17;20.80;48.30
35680;DHT22;21803;53.586;10.040;2023-10-19T07:34:43;20.80;48.30
35680;DHT22;21803;53.586;10.040;2023-10-19T07:37:10;20.80;48.20
35680;DHT22;21803;53.586;10.040;2023-10-19T07:39:47;20.80;48.20
35680;DHT22;21803;53.586;10.040;2023-10-19T07:42:13;20.80;48.30
35680;DHT22;21803;53.586;10.040;2023-10-19T07:44:40;20.80;48.30
35680;DHT22;21803;53.586;10.040;2023-10-19T07:47:05;20.80;48.30
35680;DHT22;21803;53.586;10.040;2023-10-19T07:49:32;20.80;48.30
35680;DHT22;21803;53.586;10.040;2023-10-19T07:51:58;20.70;48.20
35680;DHT22;21803;53.586;10.040;2023-10-19T07:54:24;20.80;48.30
35680;DHT22;21803;53.586;10.040;2023-10-19T07:56:50;20.80;48.30
35680;DHT22;21803;53.586;10.040;2023-10-19T07:59:16;20.80;48.30
35680;DHT22;21803;53.586;10.040;2023-10-19T08:01:41;20.80;48.30
35680;DHT22;21803;53.586;10.040;2023-10-19T08:04:07;20.80;48.30
35680;DHT22;21803;53.586;10.040;2023-10-19T08:06:33;20.80;48.20
35680;DHT22;21803;53.586;10.040;2023-10-19T08:08:58;20.80;48.20
35680;DHT22;21803;53.586;10.040;2023-10-19T08:11:25;20.80;48.30
35680;DHT22;21803;53.586;10.040;2023-10-19T08:13:50;20.70;48.20
35680;DHT22;21803;53.586;10.040;2023-10-19T08:16:16;20.80;48.20
35680;DHT22;21803;53.586;10.040;2023-10-19T08:18:45;20.80;48.20
35680;DHT22;21803;53.586;10.040;2023-10-19T08:21:11;20.80;48.30
35680;DHT22;21803;53.586;10.040;2023-10-19T08:23:37;20.80;48.20
35680;DHT22;21803;53.586;10.040;2023-10-19T08:26:03;20.80;48.30
35680;DHT22;21803;53.586;10.040;2023-10-19T08:28:31;20.80;48.30
35680;DHT22;21803;53.586;10.040;2023-10-19T08:30:58;20.80;48.30
35680;DHT22;21803;53.586;10.040;2023-10-19T08:33:26;20.80;48.30
35680;DHT22;21803;53.586;10.040;2023-10-19T08:35:55;20.80;48.30
35680;DHT22;21803;53.586;10.040;2023-10-19T08:38:25;20.80;48.20
35680;DHT22;21803;53.586;10.040;2023-10-19T08:40:51;20.70;48.20
35680;DHT22;21803;53.586;10.040;2023-10-19T08:43:18;20.80;48.30
35680;DHT22;21803;53.586;10.040;2023-10-19T08:45:44;20.80;48.30
35680;DHT22;21803;53.586;10.040;2023-10-19T08:48:10;20.70;48.20
35680;DHT22;21803;53.586;10.040;2023-10-19T08:50:37;20.80;48.30
35680;DHT22;21803;53.586;10.040;2023-10-19T08:53:07;20.80;48.20
35680;DHT22;21803;53.586;10.040;2023-10-19T08:55:39;20.80;48.20
35680;DHT22;21803;53.586;10.040;2023-10-19T08:58:05;20.80;48.20
35680;DHT22;21803;53.586;10.040;2023-10-19T09:00:48;20.80;48.30
35680;DHT22;21803;53.586;10.040;2023-10-19T09:03:15;20.80;48.20
35680;DHT22;21803;53.586;10.040;2023-10-19T09:05:42;20.80;48.20
35680;DHT22;21803;53.586;10.040;2023-10-19T09:08:07;20.80;48.20
35680;DHT22;21803;53.586;10.040;2023-10-19T09:10:35;20.80;48.20
35680;DHT22;21803;53.586;10.040;2023-10-19T09:13:02;20.40;48.10
35680;DHT22;21803;53.586;10.040;2023-10-19T09:15:29;20.80;48.30
35680;DHT22;21803;53.586;10.040;2023-10-19T09:18:01;20.80;48.30
35680;DHT22;21803;53.586;10.040;2023-10-19T09:20:36;20.80;48.20
35680;DHT22;21803;53.586;10.040;2023-10-19T09:23:02;20.80;48.30
35680;DHT22;21803;53.586;10.040;2023-10-19T09:25:27;20.80;48.30
35680;DHT22;21803;53.586;10.040;2023-10-19T09:27:53;20.80;48.20
35680;DHT22;21803;53.586;10.040;2023-10-19T09:30:20;20.70;48.20
35680;DHT22;21803;53.586;10.040;2023-10-19T09:32:47;20.80;48.20
35680;DHT22;21803;53.586;10.040;2023-10-19T09:35:14;20.80;48.20
35680;DHT22;21803;53.586;10.040;2023-10-19T09:37:42;20.80;48.20
35680;DHT22;21803;53.586;10.040;2023-10-19T09:40:09;20.80;48.20
35680;DHT22;21803;53.586;10.040;2023-10-19T09:42:40;20.80;48.20
35680;DHT22;21803;53.586;10.040;2023-10-19T09:45:12;20.80;48.20
35680;DHT22;21803;53.586;10.040;2023-10-19T09:47:41;20.80;48.20
35680;DHT22;21803;53.586;10.040;2023-10-19T09:50:10;20.80;48.20
35680;DHT22;21803;53.586;10.040;2023-10-19T09:52:39;20.80;48.20
35680;DHT22;21803;53.586;10.040;2023-10-19T09:57:56;20.70;48.20
35680;DHT22;21803;53.586;10.040;2023-10-19T10:00:24;20.80;48.20
35680;DHT22;21803;53.586;10.040;2023-10-19T10:02:51;20.80;48.20
35680;DHT22;21803;53.586;10.040;2023-10-19T10:10:49;20.70;48.20
35680;DHT22;21803;53.586;10.040;2023-10-19T10:15:55;20.80;48.20
35680;DHT22;21803;53.586;10.040;2023-10-19T10:18:23;20.80;48.20
35680;DHT22;21803;53.586;10.040;2023-10-19T10:21:08;20.70;48.10
35680;DHT22;21803;53.586;10.040;2023-10-19T10:23:48;20.70;48.80
35680;DHT22;21803;53.586;10.040;2023-10-19T10:26:16;20.70;48.20
35680;DHT22;21803;53.586;10.040;2023-10-19T10:28:46;20.70;48.20
35680;DHT22;21803;53.586;10.040;2023-10-19T10:31:20;20.80;48.20
35680;DHT22;21803;53.586;10.040;2023-10-19T10:33:51;20.80;48.20
35680;DHT22;21803;53.586;10.040;2023-10-19T10:36:20;20.70;48.20
35680;DHT22;21803;53.586;10.040;2023-10-19T10:38:48;20.70;48.20
35680;DHT22;21803;53.586;10.040;2023-10-19T10:41:24;20.70;48.20
35680;DHT22;21803;53.586;10.040;2023-10-19T10:43:58;20.80;48.20
35680;DHT22;21803;53.586;10.040;2023-10-19T10:46:25;20.80;48.20
35680;DHT22;21803;53.586;10.040;2023-10-19T10:48:52;20.70;48.10
35680;DHT22;21803;53.586;10.040;2023-10-19T10:51:20;20.80;48.20
35680;DHT22;21803;53.586;10.040;2023-10-19T10:53:48;20.70;48.70
35680;DHT22;21803;53.586;10.040;2023-10-19T10:56:14;20.80;48.20
35680;DHT22;21803;53.586;10.040;2023-10-19T10:58:39;20.80;48.20
35680;DHT22;21803;53.586;10.040;2023-10-19T11:01:06;20.80;48.20
35680;DHT22;21803;53.586;10.040;2023-10-19T11:03:32;20.80;48.80
35680;DHT22;21803;53.586;10.040;2023-10-19T11:06:07;20.80;48.10
35680;DHT22;21803;53.586;10.040;2023-10-19T11:08:37;20.80;48.20
35680;DHT22;21803;53.586;10.040;2023-10-19T11:11:08;20.70;48.10
35680;DHT22;21803;53.586;10.040;2023-10-19T11:13:37;20.80;48.10
35680;DHT22;21803;53.586;10.040;2023-10-19T11:16:05;20.80;48.00
35680;DHT22;21803;53.586;10.040;2023-10-19T11:18:34;20.80;48.00
35680;DHT22;21803;53.586;10.040;2023-10-19T11:21:09;20.80;48.00
35680;DHT22;21803;53.586;10.040;2023-10-19T11:23:36;20.80;48.00
35680;DHT22;21803;53.586;10.040;2023-10-19T11:26:02;20.80;47.90
35680;DHT22;21803;53.586;10.040;2023-10-19T11:28:29;20.80;48.00
35680;DHT22;21803;53.586;10.040;2023-10-19T11:31:10;20.80;47.90
35680;DHT22;21803;53.586;10.040;2023-10-19T11:33:36;20.80;48.00
35680;DHT22;21803;53.586;10.040;2023-10-19T11:36:02;20.80;47.90
35680;DHT22;21803;53.586;10.040;2023-10-19T11:38:28;20.80;48.00
35680;DHT22;21803;53.586;10.040;2023-10-19T11:40:53;20.80;48.00
35680;DHT22;21803;53.586;10.040;2023-10-19T11:43:19;20.80;48.00
35680;DHT22;21803;53.586;10.040;2023-10-19T11:45:44;20.80;48.00
35680;DHT22;21803;53.586;10.040;2023-10-19T11:48:11;20.80;48.00
35680;DHT22;21803;53.586;10.040;2023-10-19T11:50:36;20.80;48.00
35680;DHT22;21803;53.586;10.040;2023-10-19T11:53:02;20.80;48.00
35680;DHT22;21803;53.586;10.040;2023-10-19T11:55:28;20.80;47.90
35680;DHT22;21803;53.586;10.040;2023-10-19T11:57:54;20.80;48.00
35680;DHT22;21803;53.586;10.040;2023-10-19T12:00:20;20.80;48.00
35680;DHT22;21803;53.586;10.040;2023-10-19T12:02:47;20.80;47.90
35680;DHT22;21803;53.586;10.040;2023-10-19T12:05:13;20.70;47.90
35680;DHT22;21803;53.586;10.040;2023-10-19T12:07:39;20.70;47.90
35680;DHT22;21803;53.586;10.040;2023-10-19T12:10:07;20.80;48.00
35680;DHT22;21803;53.586;10.040;2023-10-19T12:12:36;20.70;47.90
35680;DHT22;21803;53.586;10.040;2023-10-19T12:15:03;20.80;47.90
35680;DHT22;21803;53.586;10.040;2023-10-19T12:17:31;20.80;47.90
35680;DHT22;21803;53.586;10.040;2023-10-19T12:19:56;20.70;47.90
35680;DHT22;21803;53.586;10.040;2023-10-19T12:22:22;20.70;47.90
35680;DHT22;21803;53.586;10.040;2023-10-19T12:24:49;20.80;47.90
35680;DHT22;21803;53.586;10.040;2023-10-19T12:27:17;20.70;47.90
35680;DHT22;21803;53.586;10.040;2023-10-19T12:29:43;20.70;47.90
35680;DHT22;21803;53.586;10.040;2023-10-19T12:32:09;20.80;48.00
35680;DHT22;21803;53.586;10.040;2023-10-19T12:34:35;20.70;47.90
35680;DHT22;21803;53.586;10.040;2023-10-19T12:37:00;20.70;47.90
35680;DHT22;21803;53.586;10.040;2023-10-19T12:39:27;20.70;47.90
35680;DHT22;21803;53.586;10.040;2023-10-19T12:42:08;20.70;47.90
35680;DHT22;21803;53.586;10.040;2023-10-19T12:44:34;20.70;47.90
35680;DHT22;21803;53.586;10.040;2023-10-19T12:47:10;20.80;48.00
35680;DHT22;21803;53.586;10.040;2023-10-19T12:49:39;20.70;47.80
35680;DHT22;21803;53.586;10.040;2023-10-19T12:52:06;20.70;47.90
35680;DHT22;21803;53.586;10.040;2023-10-19T12:54:36;20.70;47.90
35680;DHT22;21803;53.586;10.040;2023-10-19T12:57:02;20.70;47.90
35680;DHT22;21803;53.586;10.040;2023-10-19T12:59:35;20.70;47.90
35680;DHT22;21803;53.586;10.040;2023-10-19T13:02:03;20.70;47.90
35680;DHT22;21803;53.586;10.040;2023-10-19T13:04:29;20.70;48.00
35680;DHT22;21803;53.586;10.040;2023-10-19T13:06:56;20.70;48.10
35680;DHT22;21803;53.586;10.040;2023-10-19T13:09:24;20.70;48.20
35680;DHT22;21803;53.586;10.040;2023-10-19T13:11:57;20.70;48.30
35680;DHT22;21803;53.586;10.040;2023-10-19T13:14:22;20.80;48.50
35680;DHT22;21803;53.586;10.040;2023-10-19T13:16:48;20.80;48.50
35680;DHT22;21803;53.586;10.040;2023-10-19T13:19:16;20.80;48.70
35680;DHT22;21803;53.586;10.040;2023-10-19T13:21:47;20.80;48.70
35680;DHT22;21803;53.586;10.040;2023-10-19T13:24:14;20.80;48.80
35680;DHT22;21803;53.586;10.040;2023-10-19T13:26:41;20.80;48.90
35680;DHT22;21803;53.586;10.040;2023-10-19T13:29:11;20.80;49.00
35680;DHT22;21803;53.586;10.040;2023-10-19T13:31:37;20.80;49.00
35680;DHT22;21803;53.586;10.040;2023-10-19T13:34:02;20.80;49.10
35680;DHT22;21803;53.586;10.040;2023-10-19T13:36:30;20.20;48.90
35680;DHT22;21803;53.586;10.040;2023-10-19T13:38:55;20.80;49.30
35680;DHT22;21803;53.586;10.040;2023-10-19T13:41:21;20.80;49.40
35680;DHT22;21803;53.586;10.040;2023-10-19T13:43:47;20.80;49.50
35680;DHT22;21803;53.586;10.040;2023-10-19T13:46:13;20.80;49.50
35680;DHT22;21803;53.586;10.040;2023-10-19T13:48:39;20.80;49.60
35680;DHT22;21803;53.586;10.040;2023-10-19T13:51:05;20.80;49.70
35680;DHT22;21803;53.586;10.040;2023-10-19T13:53:40;20.80;49.80
35680;DHT22;21803;53.586;10.040;2023-10-19T13:56:10;20.80;49.90
35680;DHT22;21803;53.586;10.040;2023-10-19T13:58:35;20.80;50.50
35680;DHT22;21803;53.586;10.040;2023-10-19T14:01:01;20.80;50.00
35680;DHT22;21803;53.586;10.040;2023-10-19T14:03:28;20.80;50.00
35680;DHT22;21803;53.586;10.040;2023-10-19T14:05:55;20.80;50.00
35680;DHT22;21803;53.586;10.040;2023-10-19T14:08:21;20.80;50.00
35680;DHT22;21803;53.586;10.040;2023-10-19T14:10:47;20.80;50.10
35680;DHT22;21803;53.586;10.040;2023-10-19T14:13:13;20.80;50.10
35680;DHT22;21803;53.586;10.040;2023-10-19T14:15:40;20.80;50.20
35680;DHT22;21803;53.586;10.040;2023-10-19T14:18:05;20.80;50.20
35680;DHT22;21803;53.586;10.040;2023-10-19T14:20:31;20.80;50.20
35680;DHT22;21803;53.586;10.040;2023-10-19T14:22:59;20.80;50.20
35680;DHT22;21803;53.586;10.040;2023-10-19T14:25:25;20.80;50.20
35680;DHT22;21803;53.586;10.040;2023-10-19T14:27:54;20.80;50.30
35680;DHT22;21803;53.586;10.040;2023-10-19T14:30:23;20.80;50.30
35680;DHT22;21803;53.586;10.040;2023-10-19T14:32:50;20.80;50.30
35680;DHT22;21803;53.586;10.040;2023-10-19T14:35:17;20.80;50.30
35680;DHT22;21803;53.586;10.040;2023-10-19T14:37:47;20.80;50.30
35680;DHT22;21803;53.586;10.040;2023-10-19T14:40:19;20.80;50.30
35680;DHT22;21803;53.586;10.040;2023-10-19T14:42:46;20.80;50.40
35680;DHT22;21803;53.586;10.040;2023-10-19T14:45:14;20.80;50.40
35680;DHT22;21803;53.586;10.040;2023-10-19T14:47:40;20.80;50.40
35680;DHT22;21803;53.586;10.040;2023-10-19T14:50:15;20.80;50.50
35680;DHT22;21803;53.586;10.040;2023-10-19T14:52:44;20.80;50.40
35680;DHT22;21803;53.586;10.040;2023-10-19T14:55:10;20.80;50.50
35680;DHT22;21803;53.586;10.040;2023-10-19T14:57:37;20.70;50.50
35680;DHT22;21803;53.586;10.040;2023-10-19T15:00:05;20.80;50.50
35680;DHT22;21803;53.586;10.040;2023-10-19T15:02:43;20.80;50.50
35680;DHT22;21803;53.586;10.040;2023-10-19T15:05:10;20.80;50.50
35680;DHT22;21803;53.586;10.040;2023-10-19T15:07:39;20.80;50.60
35680;DHT22;21803;53.586;10.040;2023-10-19T15:10:05;20.80;50.60
35680;DHT22;21803;53.586;10.040;2023-10-19T15:12:35;20.80;50.60
35680;DHT22;21803;53.586;10.040;2023-10-19T15:15:01;20.80;50.60
35680;DHT22;21803;53.586;10.040;2023-10-19T15:17:27;20.80;50.60
35680;DHT22;21803;53.586;10.040;2023-10-19T15:19:53;20.70;50.60
35680;DHT22;21803;53.586;10.040;2023-10-19T15:22:18;20.80;50.60
35680;DHT22;21803;53.586;10.040;2023-10-19T15:24:44;20.80;50.70
35680;DHT22;21803;53.586;10.040;2023-10-19T15:27:10;20.80;50.70
35680;DHT22;21803;53.586;10.040;2023-10-19T15:29:35;20.80;50.70
35680;DHT22;21803;53.586;10.040;2023-10-19T15:32:01;20.80;51.30